Weather - Helsinki Query any day in the database

Current weather  

Weather data for a selected day (2006-01-01 -2020-10-30)
Enter date:     <-     scroll days         ->
day curves
Low temperature°C -14.723:30
High temperature°C -3.700:00
Low wind chill°C -26.423:00
Average temperature°C -9.0 
High wind speed (10 min) m/s 14.008:30
Low pressurehPa 998.503:00
High pressurehPa 1011.123:30
Low R.H% 8209:30
High R.H% 9903:30
Maximum snow depthcm 3523:30
Day weather data as a table
Date Time Temp
°C
Chill
°C
Pressure
hPA
Wind
m/s
Hum
%
Precip
mm
2019-01-20 23:30:00 -14.7  -25.9  1011.1 8.8 91 -
2019-01-20 23:00:00 -14.7  -26.4  1010.9 9.7 91 -
2019-01-20 22:30:00 -13.9  -25.3  1010.6 9.7 91 -
2019-01-20 22:00:00 -14.4  -25.6  1010.5 9.0 91 -
2019-01-20 21:30:00 -13.9  -25.3  1010.4 9.6 92 -
2019-01-20 21:00:00 -13.2  -24.5  1010.1 10.0 92 -
2019-01-20 20:30:00 -14.0  -25.3  1010.0 9.3 93 -
2019-01-20 20:00:00 -13.6  -22.5  1009.8 5.7 94 -
2019-01-20 19:30:00 -12.8  -23.4  1009.7 8.8 91 -
2019-01-20 19:00:00 -13.2  -20.0  1009.6 3.5 95 -
2019-01-20 18:30:00 -12.1  -20.6  1009.4 5.7 94 -
2019-01-20 18:00:00 -10.4  -20.6  1009.3 9.4 89 -
2019-01-20 17:30:00 -10.1  -19.0  1009.1 7.1 92 -
2019-01-20 17:00:00 -11.5  -17.6  1009.0 3.2 95 -
2019-01-20 16:30:00 -10.8  -16.8  1008.9 3.3 93 -
2019-01-20 16:00:00 -11.0  -17.0  1008.8 3.2 90 -
2019-01-20 15:30:00 -9.3  -18.5  1008.5 8.1 84 -
2019-01-20 15:00:00 -8.7  -17.6  1008.3 7.8 84 -
2019-01-20 14:30:00 -8.6  -18.7  1008.1 10.6 82 -
2019-01-20 14:00:00 -8.4  -18.7  1007.9 11.4 82 -
2019-01-20 13:30:00 -8.5  -18.6  1007.6 10.8 82 -
2019-01-20 13:00:00 -8.7  -18.0  1007.3 8.7 83 -
2019-01-20 12:30:00 -8.8  -18.6  1007.2 9.7 82 -
2019-01-20 12:00:00 -9.4  -19.7  1007.2 10.5 83 -
2019-01-20 11:30:00 -9.8  -20.2  1007.0 10.3 84 -
2019-01-20 11:00:00 -10.1  -19.5  1006.6 8.1 83 -
2019-01-20 10:30:00 -10.1  -20.2  1006.4 9.5 85 -
2019-01-20 10:00:00 -9.6  -20.1  1006.0 10.9 84 -
2019-01-20 09:30:00 -8.7  -19.7  1005.4 13.1 82 -
2019-01-20 09:00:00 -7.6  -18.0  1004.8 12.3 86 -
2019-01-20 08:30:00 -6.5  -17.0  1003.8 14.0 84 -
2019-01-20 08:00:00 -6.1  -16.3  1003.3 13.3 89 -
2019-01-20 07:30:00 -5.7  -15.7  1002.6 13.1 88 -
2019-01-20 07:00:00 -5.9  -15.6  1001.9 11.9 89 -
2019-01-20 06:30:00 -4.7  -13.6  1001.2 11.0 91 -
2019-01-20 06:00:00 -4.2  -12.4  1000.4 9.5 93 -
2019-01-20 05:30:00 -4.5  -11.3  1000.0 6.2 95 -
2019-01-20 05:00:00 -4.8  -11.1  999.5 5.3 95 -
2019-01-20 04:30:00 -5.2  -13.7  999.2 9.4 96 -
2019-01-20 04:00:00 -5.7  -12.2  998.9 5.2 97 -
2019-01-20 03:30:00 -6.5  -12.0  998.7 3.7 99 -
2019-01-20 03:00:00 -7.4  -12.4  998.5 3.0 99 -
2019-01-20 02:30:00 -6.6  -10.6  998.5 2.3 97 -
2019-01-20 02:00:00 -6.6  -11.0  998.7 2.6 97 -
2019-01-20 01:30:00 -7.3  -14.9  998.7 6.2 96 -
2019-01-20 01:00:00 -5.7  -12.6  998.8 5.9 94 -
2019-01-20 00:30:00 -4.6  -11.2  998.9 5.8 94 -
2019-01-20 00:00:00 -3.7  -9.1  999.1 4.3 95 -
Unit conversions: